createdAt,value
2017-09-14T00:00:16.269Z,7.47
2017-09-14T00:05:19.005Z,10.90
2017-09-14T00:10:20.933Z,7.53
2017-09-14T00:15:22.954Z,10.03
2017-09-14T00:20:24.911Z,9.77
2017-09-14T00:25:27.704Z,4.50
2017-09-14T00:30:29.684Z,5.50
2017-09-14T00:35:31.688Z,6.23
2017-09-14T00:40:34.586Z,5.97
2017-09-14T00:45:36.586Z,5.00
2017-09-14T00:50:38.654Z,4.70
2017-09-14T00:55:40.605Z,5.57
2017-09-14T01:00:42.598Z,5.70
2017-09-14T01:05:45.391Z,8.47
2017-09-14T01:10:47.510Z,6.37
2017-09-14T01:15:49.640Z,8.10
2017-09-14T01:20:51.933Z,11.17
2017-09-14T01:25:54.210Z,8.83
2017-09-14T01:30:56.296Z,11.87
2017-09-14T01:35:58.413Z,9.97
2017-09-14T01:41:01.302Z,12.50
2017-09-14T01:46:03.321Z,9.53
2017-09-14T01:51:05.305Z,8.63
2017-09-14T01:56:07.336Z,9.70
2017-09-14T02:01:09.343Z,11.00
2017-09-14T02:06:12.185Z,7.37
2017-09-14T02:11:14.253Z,15.07
2017-09-14T02:16:16.274Z,6.60
2017-09-14T02:21:24.255Z,5.93
2017-09-14T02:26:26.302Z,5.90
2017-09-14T02:31:28.331Z,4.10
2017-09-14T02:36:30.387Z,7.17
2017-09-14T02:41:32.353Z,7.63
2017-09-14T02:46:34.339Z,3.77
2017-09-14T02:51:37.047Z,3.27
2017-09-14T02:56:39.031Z,4.77
2017-09-14T03:06:50.132Z,5.03
2017-09-14T03:11:52.905Z,2.17
2017-09-14T03:16:54.883Z,4.10
2017-09-14T03:21:56.862Z,9.97
2017-09-14T03:26:58.862Z,6.87
2017-09-14T03:32:01.315Z,6.87
2017-09-14T03:37:03.400Z,5.90
2017-09-14T03:42:05.387Z,11.50
2017-09-14T03:47:07.421Z,14.30
2017-09-14T03:52:10.183Z,11.43
2017-09-14T03:57:12.800Z,17.90
2017-09-14T04:02:15.028Z,13.97
2017-09-14T04:07:19.467Z,18.90
2017-09-14T04:12:21.696Z,17.40
2017-09-14T04:17:25.343Z,20.37
2017-09-14T04:22:27.604Z,20.93
2017-09-14T04:27:29.662Z,20.33
2017-09-14T04:32:31.649Z,22.23
2017-09-14T04:37:33.714Z,26.57
2017-09-14T04:42:35.707Z,28.60
2017-09-14T04:47:38.596Z,55.57
2017-09-14T04:52:40.601Z,26.03
2017-09-14T04:57:42.585Z,23.93
2017-09-14T05:02:44.663Z,37.77
2017-09-14T05:07:46.629Z,22.93
2017-09-14T05:12:48.630Z,31.80
2017-09-14T05:17:50.644Z,18.73
2017-09-14T05:22:52.712Z,27.00
2017-09-14T05:28:00.402Z,30.17
2017-09-14T05:33:05.925Z,28.00
2017-09-14T05:38:09.110Z,27.23
2017-09-14T05:43:11.189Z,23.83
2017-09-14T05:48:13.203Z,24.97
2017-09-14T05:53:16.483Z,30.40
2017-09-14T05:58:18.464Z,32.03
2017-09-14T06:03:20.546Z,27.67
2017-09-14T06:13:32.232Z,25.10
2017-09-14T06:18:34.169Z,31.93
2017-09-14T06:23:36.148Z,27.73
2017-09-14T06:28:38.862Z,24.20
2017-09-14T06:33:40.855Z,36.67
2017-09-14T06:38:42.964Z,29.40
2017-09-14T06:43:45.008Z,23.47
2017-09-14T06:48:47.033Z,26.47
2017-09-14T06:53:49.059Z,32.40
2017-09-14T06:58:51.060Z,31.03
2017-09-14T07:03:53.028Z,29.40
2017-09-14T07:08:55.028Z,33.10
2017-09-14T07:13:57.693Z,31.30
2017-09-14T07:18:59.651Z,32.53
2017-09-14T07:24:01.711Z,25.43
2017-09-14T07:29:03.655Z,33.13
2017-09-14T07:34:05.604Z,34.97
2017-09-14T07:39:07.593Z,21.23
2017-09-14T07:44:09.564Z,26.33
2017-09-14T07:49:11.531Z,24.53
2017-09-14T07:54:13.616Z,27.10
2017-09-14T07:59:15.604Z,22.97
2017-09-14T08:04:18.496Z,23.00
2017-09-14T08:09:20.487Z,22.93
2017-09-14T08:14:22.485Z,23.83
2017-09-14T08:19:24.561Z,18.80
2017-09-14T08:24:26.638Z,18.17
2017-09-14T08:29:29.389Z,16.90
2017-09-14T08:34:31.496Z,12.80
2017-09-14T08:39:34.230Z,23.17
2017-09-14T08:44:36.275Z,16.67
2017-09-14T08:49:38.308Z,15.67
2017-09-14T08:54:40.346Z,14.37
2017-09-14T08:59:42.388Z,15.63
2017-09-14T09:04:44.475Z,13.50
2017-09-14T09:09:46.467Z,23.30
2017-09-14T09:14:48.522Z,8.90
2017-09-14T09:19:50.510Z,5.20
2017-09-14T09:24:52.456Z,9.27
2017-09-14T09:29:54.464Z,7.20
2017-09-14T09:34:56.475Z,5.60
2017-09-14T09:39:58.436Z,8.60
2017-09-14T09:45:00.416Z,6.80
2017-09-14T09:50:02.429Z,6.20
2017-09-14T09:55:04.436Z,9.67
2017-09-14T10:00:06.610Z,7.83
2017-09-14T10:05:12.950Z,6.27
2017-09-14T10:10:20.139Z,10.20
2017-09-14T10:15:22.282Z,5.13
2017-09-14T10:20:24.295Z,5.70
2017-09-14T10:25:27.091Z,4.80
2017-09-14T10:30:29.144Z,4.63
2017-09-14T10:35:31.197Z,8.23
2017-09-14T10:40:35.159Z,3.50
2017-09-14T10:45:37.211Z,5.03
2017-09-14T10:50:39.268Z,2.47
2017-09-14T10:55:41.337Z,5.47
2017-09-14T11:00:43.281Z,2.13
2017-09-14T11:05:45.326Z,1.30
2017-09-14T11:10:47.367Z,2.37
2017-09-14T11:15:49.426Z,3.63
2017-09-14T11:20:52.199Z,11.53
2017-09-14T11:25:54.236Z,2.80
2017-09-14T11:30:56.742Z,5.03
2017-09-14T11:35:58.722Z,1.27
2017-09-14T11:41:01.478Z,2.30
2017-09-14T11:46:04.539Z,4.60
2017-09-14T11:51:06.695Z,2.00
2017-09-14T11:56:09.418Z,2.93
2017-09-14T12:01:11.422Z,2.20
2017-09-14T12:06:13.440Z,4.67
2017-09-14T12:11:15.491Z,1.87
2017-09-14T12:16:17.520Z,5.40
2017-09-14T12:21:19.526Z,4.33
2017-09-14T12:26:21.526Z,1.00
2017-09-14T12:31:23.510Z,4.47
2017-09-14T12:36:25.488Z,2.03
2017-09-14T12:41:27.581Z,2.73
2017-09-14T12:46:29.547Z,8.13
2017-09-14T12:51:31.503Z,0.87
2017-09-14T12:56:34.257Z,1.13
2017-09-14T13:01:36.280Z,10.30
2017-09-14T13:06:38.304Z,1.83
2017-09-14T13:11:40.596Z,2.90
2017-09-14T13:16:42.656Z,2.43
2017-09-14T13:21:45.469Z,1.57
2017-09-14T13:26:47.510Z,3.33
2017-09-14T13:31:49.497Z,5.47
2017-09-14T13:36:51.510Z,2.80
2017-09-14T13:41:53.543Z,6.53
2017-09-14T13:46:56.320Z,1.97
2017-09-14T13:51:58.382Z,2.00
2017-09-14T13:57:01.388Z,3.13
2017-09-14T14:02:03.438Z,2.33
2017-09-14T14:07:05.503Z,3.57
2017-09-14T14:12:07.527Z,3.53
2017-09-14T14:17:09.580Z,3.83
2017-09-14T14:22:11.613Z,2.70
2017-09-14T14:27:13.597Z,1.30
2017-09-14T14:32:16.395Z,5.17
2017-09-14T14:37:18.405Z,4.87
2017-09-14T14:42:20.440Z,4.70
2017-09-14T14:47:22.493Z,1.90
2017-09-14T14:52:24.500Z,1.80
2017-09-14T14:57:26.521Z,7.03
2017-09-14T15:02:28.537Z,2.57
2017-09-14T15:07:30.545Z,9.80
2017-09-14T15:12:32.516Z,2.50
2017-09-14T15:17:34.635Z,2.43
2017-09-14T15:22:37.404Z,0.77
2017-09-14T15:27:39.436Z,0.83
2017-09-14T15:32:47.353Z,3.43
2017-09-14T15:37:53.106Z,2.90
2017-09-14T15:43:01.256Z,3.17
2017-09-14T15:48:14.426Z,3.30
2017-09-14T15:53:16.552Z,4.10
2017-09-14T15:58:19.018Z,1.07
2017-09-14T16:03:21.084Z,1.60
2017-09-14T16:08:27.831Z,1.57
2017-09-14T16:13:30.229Z,1.20
2017-09-14T16:18:32.227Z,0.80
2017-09-14T16:23:34.168Z,2.70
2017-09-14T16:28:36.990Z,2.70
2017-09-14T16:33:39.016Z,4.40
2017-09-14T16:38:41.114Z,4.60
2017-09-14T16:43:43.080Z,1.30
2017-09-14T16:48:45.034Z,0.93
2017-09-14T16:53:47.120Z,1.70
2017-09-14T16:58:49.156Z,1.97
2017-09-14T17:03:51.140Z,1.10
2017-09-14T17:08:53.241Z,1.23
2017-09-14T17:13:55.374Z,1.70
2017-09-14T17:18:57.348Z,1.53
2017-09-14T17:23:59.690Z,1.63
2017-09-14T17:29:01.675Z,2.30
2017-09-14T17:34:04.382Z,2.43
2017-09-14T17:39:06.372Z,2.23
2017-09-14T17:44:08.494Z,8.53
2017-09-14T17:49:11.130Z,2.20
2017-09-14T17:54:14.051Z,2.93
2017-09-14T17:59:16.037Z,2.97
2017-09-14T18:04:18.753Z,3.00
2017-09-14T18:09:20.763Z,3.00
2017-09-14T18:14:28.131Z,3.00
2017-09-14T18:19:30.881Z,3.10
2017-09-14T18:24:32.844Z,4.43
2017-09-14T18:29:35.525Z,3.90
2017-09-14T18:34:37.645Z,3.73
2017-09-14T18:39:39.878Z,5.80
2017-09-14T18:44:41.847Z,3.97
2017-09-14T18:49:47.290Z,4.63
2017-09-14T18:54:49.475Z,3.80
2017-09-14T18:59:51.501Z,9.10
2017-09-14T19:04:53.622Z,4.50
2017-09-14T19:09:56.659Z,3.93
2017-09-14T19:15:01.215Z,4.90
2017-09-14T19:20:07.103Z,12.57
2017-09-14T19:25:09.991Z,6.73
2017-09-14T19:30:12.015Z,4.23
2017-09-14T19:35:17.068Z,5.73
2017-09-14T19:40:22.275Z,5.20
2017-09-14T19:45:24.872Z,2.90
2017-09-14T19:50:27.052Z,11.53
2017-09-14T19:55:29.748Z,3.70
2017-09-14T20:00:31.725Z,12.27
2017-09-14T20:05:34.386Z,3.03
2017-09-14T20:10:36.350Z,5.77
2017-09-14T20:15:43.760Z,6.80
2017-09-14T20:20:46.255Z,4.30
2017-09-14T20:25:48.642Z,8.53
2017-09-14T20:30:51.108Z,3.00
2017-09-14T20:35:54.228Z,2.33
2017-09-14T20:40:56.191Z,3.60
2017-09-14T20:45:58.234Z,3.63
2017-09-14T20:51:00.196Z,12.80
2017-09-14T20:56:02.172Z,6.87
2017-09-14T21:01:05.626Z,8.70
2017-09-14T21:06:07.614Z,11.83
2017-09-14T21:11:09.569Z,4.47
2017-09-14T21:16:12.256Z,10.80
2017-09-14T21:21:14.262Z,11.47
2017-09-14T21:26:16.200Z,10.03
2017-09-14T21:31:18.191Z,10.73
2017-09-14T21:36:20.291Z,13.17
2017-09-14T21:41:22.993Z,13.47
2017-09-14T21:46:25.642Z,13.83
2017-09-14T21:51:27.633Z,13.83
2017-09-14T21:56:29.593Z,17.03
2017-09-14T22:01:31.592Z,12.20
2017-09-14T22:06:34.298Z,17.53
2017-09-14T22:11:36.250Z,12.97
2017-09-14T22:16:38.280Z,24.93
2017-09-14T22:21:40.269Z,16.10
2017-09-14T22:26:42.227Z,19.33
2017-09-14T22:31:44.219Z,10.40
2017-09-14T22:36:46.268Z,11.70
2017-09-14T22:41:48.219Z,17.97
2017-09-14T22:46:50.409Z,14.60
2017-09-14T22:51:52.433Z,19.30
2017-09-14T22:56:54.461Z,15.33
2017-09-14T23:01:57.059Z,16.50
2017-09-14T23:06:59.753Z,14.70
2017-09-14T23:12:02.382Z,18.63
2017-09-14T23:17:04.361Z,14.60
2017-09-14T23:22:06.335Z,11.43
2017-09-14T23:27:09.458Z,19.00
2017-09-14T23:32:11.565Z,9.83
2017-09-14T23:37:14.379Z,17.87
2017-09-14T23:42:16.456Z,18.77
2017-09-14T23:47:18.438Z,16.50
2017-09-14T23:52:20.408Z,22.23
2017-09-14T23:57:22.367Z,12.37
